createdAt,value
2022-12-18T00:01:53.887Z,11.55
2022-12-18T00:06:59.559Z,13.05
2022-12-18T00:17:23.430Z,13.50
2022-12-18T00:22:28.508Z,13.15
2022-12-18T00:27:33.606Z,11.45
2022-12-18T00:32:41.173Z,12.07
2022-12-18T00:37:46.274Z,11.48
2022-12-18T00:43:00.279Z,11.27
2022-12-18T00:48:08.667Z,11.75
2022-12-18T00:53:14.643Z,11.88
2022-12-18T00:58:20.705Z,12.40
2022-12-18T01:03:28.286Z,13.90
2022-12-18T01:08:33.321Z,12.88
2022-12-18T01:13:39.208Z,12.38
2022-12-18T01:18:47.422Z,12.07
2022-12-18T01:23:55.506Z,11.68
2022-12-18T01:29:01.090Z,12.25
2022-12-18T01:34:09.217Z,12.30
2022-12-18T01:39:16.324Z,11.90
2022-12-18T01:44:51.186Z,12.20
2022-12-18T01:49:59.736Z,12.75
2022-12-18T01:55:06.920Z,10.23
2022-12-18T02:00:14.957Z,12.38
2022-12-18T02:05:24.614Z,12.57
2022-12-18T02:10:35.449Z,11.48
2022-12-18T02:15:43.585Z,12.95
2022-12-18T02:20:53.546Z,13.43
2022-12-18T02:26:09.371Z,13.15
2022-12-18T02:31:18.274Z,13.27
2022-12-18T02:36:24.573Z,13.57
2022-12-18T02:41:32.866Z,13.48
2022-12-18T02:46:40.361Z,11.80
2022-12-18T02:51:54.461Z,13.20
2022-12-18T02:57:02.821Z,12.40
2022-12-18T03:02:11.947Z,13.10
2022-12-18T03:07:20.949Z,12.80
2022-12-18T03:12:32.769Z,11.85
2022-12-18T03:17:38.514Z,11.57
2022-12-18T03:22:45.991Z,11.50
2022-12-18T03:27:57.626Z,12.48
2022-12-18T03:33:07.004Z,12.57
2022-12-18T03:38:12.275Z,10.95
2022-12-18T03:43:24.982Z,11.35
2022-12-18T03:48:33.102Z,11.25
2022-12-18T03:53:43.143Z,10.82
2022-12-18T03:58:53.169Z,12.13
2022-12-18T04:03:58.667Z,11.25
2022-12-18T04:09:03.735Z,10.73
2022-12-18T04:14:17.395Z,11.77
2022-12-18T04:19:23.099Z,11.50
2022-12-18T04:24:28.142Z,11.82
2022-12-18T04:29:35.825Z,13.13
2022-12-18T04:34:40.830Z,11.27
2022-12-18T04:39:45.812Z,11.20
2022-12-18T04:44:53.393Z,11.75
2022-12-18T04:49:58.417Z,12.32
2022-12-18T04:55:03.373Z,11.15
2022-12-18T05:00:12.660Z,10.05
2022-12-18T05:05:18.020Z,12.65
2022-12-18T05:10:23.025Z,11.35
2022-12-18T05:15:31.950Z,12.30
2022-12-18T05:20:37.014Z,12.85
2022-12-18T05:25:42.038Z,11.30
2022-12-18T05:30:52.087Z,10.65
2022-12-18T05:35:57.502Z,12.52
2022-12-18T05:41:02.799Z,12.70
2022-12-18T05:46:12.173Z,13.82
2022-12-18T05:51:19.163Z,13.88
2022-12-18T05:56:25.693Z,13.27
2022-12-18T06:01:33.287Z,12.90
2022-12-18T06:06:38.430Z,14.27
2022-12-18T06:11:43.993Z,14.52
2022-12-18T06:16:51.507Z,13.68
2022-12-18T06:21:58.931Z,15.50
2022-12-18T06:27:03.923Z,16.15
2022-12-18T06:32:11.940Z,14.20
2022-12-18T06:37:16.873Z,16.65
2022-12-18T06:42:21.856Z,16.45
2022-12-18T06:47:29.734Z,15.57
2022-12-18T06:52:35.919Z,17.92
2022-12-18T06:57:41.674Z,19.58
2022-12-18T07:02:49.509Z,20.65
2022-12-18T07:07:54.750Z,22.17
2022-12-18T07:13:00.244Z,20.80
2022-12-18T07:18:08.092Z,17.95
2022-12-18T07:23:12.964Z,17.90
2022-12-18T07:28:17.915Z,17.58
2022-12-18T07:33:25.510Z,18.80
2022-12-18T07:38:30.470Z,17.80
2022-12-18T07:43:37.156Z,19.25
2022-12-18T07:48:46.205Z,17.77
2022-12-18T07:53:55.289Z,14.82
2022-12-18T07:59:00.766Z,15.75
2022-12-18T08:04:08.514Z,14.90
2022-12-18T08:09:14.795Z,14.63
2022-12-18T08:14:19.949Z,14.85
2022-12-18T08:19:27.774Z,15.43
2022-12-18T08:24:35.159Z,15.15
2022-12-18T08:29:40.384Z,17.45
2022-12-18T08:34:48.112Z,14.27
2022-12-18T08:39:53.295Z,15.02
2022-12-18T08:44:58.739Z,15.68
2022-12-18T08:50:07.890Z,15.65
2022-12-18T08:55:15.744Z,15.63
2022-12-18T09:00:22.137Z,15.45
2022-12-18T09:05:30.381Z,15.80
2022-12-18T09:10:41.722Z,16.48
2022-12-18T09:15:53.102Z,16.48
2022-12-18T09:21:01.430Z,16.70
2022-12-18T09:26:07.303Z,16.77
2022-12-18T09:31:17.647Z,16.75
2022-12-18T09:36:25.846Z,17.05
2022-12-18T09:41:41.737Z,16.00
2022-12-18T09:46:50.924Z,18.60
2022-12-18T09:52:04.960Z,16.15
2022-12-18T09:57:12.546Z,17.58
2022-12-18T10:02:20.838Z,21.45
2022-12-18T10:07:37.210Z,19.58
2022-12-18T10:12:47.057Z,17.10
2022-12-18T10:17:58.885Z,17.20
2022-12-18T10:23:11.535Z,19.63
2022-12-18T10:28:19.242Z,17.08
2022-12-18T10:33:26.964Z,17.13
2022-12-18T10:38:36.294Z,15.55
2022-12-18T10:43:43.814Z,16.50
2022-12-18T10:48:56.973Z,17.60
2022-12-18T10:54:08.409Z,16.25
2022-12-18T10:59:18.518Z,14.80
2022-12-18T11:04:26.211Z,16.52
2022-12-18T11:09:36.259Z,16.92
2022-12-18T11:14:47.825Z,23.20
2022-12-18T11:20:00.539Z,19.30
2022-12-18T11:30:38.242Z,18.50
2022-12-18T11:35:48.725Z,16.25
2022-12-18T11:41:01.257Z,18.13
2022-12-18T11:46:14.738Z,18.50
2022-12-18T11:51:28.275Z,24.10
2022-12-18T11:56:51.768Z,20.67
2022-12-18T12:02:02.440Z,20.02
2022-12-18T12:07:18.291Z,20.13
2022-12-18T12:12:49.172Z,17.35
2022-12-18T12:17:57.539Z,18.48
2022-12-18T12:23:06.388Z,19.33
2022-12-18T12:33:39.659Z,18.58
2022-12-18T12:38:51.943Z,17.65
2022-12-18T12:44:01.321Z,20.58
2022-12-18T12:49:11.035Z,18.88
2022-12-18T12:54:22.718Z,20.50
2022-12-18T12:59:35.905Z,21.00
2022-12-18T13:04:48.827Z,20.17
2022-12-18T13:10:25.721Z,24.90
2022-12-18T13:15:46.896Z,23.48
2022-12-18T13:20:58.579Z,20.50
2022-12-18T13:26:37.722Z,24.50
2022-12-18T13:32:34.028Z,24.95
2022-12-18T13:37:56.770Z,20.33
2022-12-18T13:43:17.665Z,25.25
2022-12-18T13:48:26.412Z,21.65
2022-12-18T13:53:39.095Z,26.83
2022-12-18T13:58:45.728Z,28.80
2022-12-18T14:03:53.735Z,26.65
2022-12-18T14:09:02.621Z,27.20
2022-12-18T14:14:09.283Z,25.23
2022-12-18T14:19:17.783Z,26.90
2022-12-18T14:24:26.975Z,29.25
2022-12-18T14:29:34.598Z,28.52
2022-12-18T14:34:40.332Z,27.02
2022-12-18T14:39:57.124Z,22.75
2022-12-18T14:45:37.495Z,23.52
2022-12-18T14:50:47.257Z,28.95
2022-12-18T14:55:56.883Z,27.10
2022-12-18T15:01:02.960Z,27.02
2022-12-18T15:06:21.498Z,27.88
2022-12-18T15:11:41.171Z,26.60
2022-12-18T15:16:46.826Z,27.38
2022-12-18T15:21:52.444Z,25.05
2022-12-18T15:27:00.787Z,25.65
2022-12-18T15:32:08.335Z,24.48
2022-12-18T15:37:14.521Z,25.80
2022-12-18T15:42:35.074Z,25.13
2022-12-18T15:47:40.746Z,24.05
2022-12-18T15:52:48.908Z,25.67
2022-12-18T15:57:58.152Z,24.83
2022-12-18T16:03:04.043Z,24.58
2022-12-18T16:08:09.853Z,21.83
2022-12-18T16:13:20.982Z,25.70
2022-12-18T16:18:26.713Z,25.05
2022-12-18T16:23:32.512Z,25.77
2022-12-18T16:28:48.135Z,26.90
2022-12-18T16:33:54.058Z,24.67
2022-12-18T16:39:00.076Z,27.83
2022-12-18T16:44:08.612Z,29.52
2022-12-18T16:49:17.548Z,31.90
2022-12-18T16:59:32.786Z,27.77
2022-12-18T17:04:39.302Z,27.73
2022-12-18T17:09:45.531Z,27.75
2022-12-18T17:14:54.035Z,31.77
2022-12-18T17:20:13.928Z,29.17
2022-12-18T17:25:20.430Z,29.02
2022-12-18T17:30:28.911Z,28.65
2022-12-18T17:35:35.038Z,29.83
2022-12-18T17:40:46.087Z,25.90
2022-12-18T17:45:55.020Z,27.38
2022-12-18T17:51:04.619Z,28.20
2022-12-18T17:56:11.643Z,29.45
2022-12-18T18:01:27.421Z,30.13
2022-12-18T18:06:37.247Z,41.42
2022-12-18T18:12:00.467Z,44.33
2022-12-18T18:22:15.094Z,34.47
2022-12-18T18:27:20.985Z,36.10
2022-12-18T18:32:29.789Z,35.45
2022-12-18T18:37:35.524Z,27.00
2022-12-18T18:42:41.342Z,25.70
2022-12-18T18:47:49.747Z,29.85
2022-12-18T18:52:57.049Z,25.02
2022-12-18T18:58:02.893Z,31.70
2022-12-18T19:03:13.291Z,31.95
2022-12-18T19:08:19.145Z,31.48
2022-12-18T19:13:25.966Z,26.95
2022-12-18T19:18:34.843Z,32.08
2022-12-18T19:23:40.707Z,30.98
2022-12-18T19:28:46.734Z,34.47
2022-12-18T19:33:55.164Z,25.90
2022-12-18T19:39:02.769Z,26.67
2022-12-18T19:44:12.845Z,26.23
2022-12-18T19:49:21.252Z,25.58
2022-12-18T19:54:27.793Z,29.50
2022-12-18T19:59:33.524Z,36.55
2022-12-18T20:04:41.940Z,34.30
2022-12-18T20:09:47.687Z,53.60
2022-12-18T20:14:54.966Z,40.60
2022-12-18T20:20:03.926Z,33.00
2022-12-18T20:25:11.951Z,33.63
2022-12-18T20:30:18.088Z,34.50
2022-12-18T20:35:29.524Z,33.72
2022-12-18T20:40:36.142Z,33.75
2022-12-18T20:45:42.972Z,38.08
2022-12-18T20:51:03.646Z,44.90
2022-12-18T20:56:12.061Z,36.30
2022-12-18T21:01:20.173Z,30.80
2022-12-18T21:06:28.738Z,31.45
2022-12-18T21:11:49.105Z,28.75
2022-12-18T21:16:58.087Z,30.30
2022-12-18T21:22:06.830Z,31.48
2022-12-18T21:27:13.069Z,30.70
2022-12-18T21:32:22.080Z,32.08
2022-12-18T21:37:33.066Z,30.05
2022-12-18T21:42:52.125Z,32.20
2022-12-18T21:48:01.233Z,31.02
2022-12-18T21:53:10.298Z,30.23
2022-12-18T22:03:21.995Z,31.15
2022-12-18T22:08:31.248Z,31.02
2022-12-18T22:13:37.367Z,30.58
2022-12-18T22:18:43.059Z,34.00
2022-12-18T22:23:56.475Z,33.15
2022-12-18T22:29:15.028Z,31.40
2022-12-18T22:34:23.199Z,27.85
2022-12-18T22:39:33.001Z,28.50
2022-12-18T22:44:40.183Z,28.27
2022-12-18T22:49:45.973Z,29.55
2022-12-18T22:54:54.885Z,30.30
2022-12-18T23:00:01.263Z,29.33
2022-12-18T23:05:07.032Z,28.08
2022-12-18T23:10:15.523Z,27.90
2022-12-18T23:15:24.450Z,30.38
2022-12-18T23:20:33.649Z,29.70
2022-12-18T23:25:41.922Z,27.73
2022-12-18T23:30:47.060Z,30.20
2022-12-18T23:35:52.167Z,31.80
2022-12-18T23:41:00.312Z,32.03
2022-12-18T23:46:05.464Z,54.13
2022-12-18T23:51:12.418Z,50.47
2022-12-18T23:56:20.145Z,37.90
